Mekhanik Pogodin — UBFH6 — position and weather

sailwx.info

Track history (hours):
 
Tides and Currents Weather Stations Pressure Air Temp Water Temp Dewpoint Dewpoint Depression Visibility Wind Speed Wind Dir Waves Ship Positions

Mekhanik Pogodin

Last reported at 2016-May-20 23:33 UTC. Time now 2016-May-25 20:48 UTC.
Position N 47°04' E 038°44'.

Length 141 m; draft 2.8 m.

Type: Ship (hazmat cat B). MMSI: 273354720.

Date/timePositionNaut miles runAvg speedWind from/ knotsBaromVisibWave heightAir tempDewpointWater temp
2016-May-20 23:33N 47°04' E 038°44'8 8.4
2016-May-20 22:33N 47°00' E 038°33'9 8.8
2016-May-20 21:34N 47°00' E 038°20'9 8.8
2016-May-20 20:34N 46°58' E 038°07'9 9.1
2016-May-20 19:34N 46°54' E 037°55'96 8.7
2016-May-20 08:33N 45°31' E 036°49'9 9.1
2016-May-20 07:34N 45°23' E 036°41'9 8.6
2016-May-20 06:33N 45°19' E 036°31'10 8.6
2016-May-20 05:24N 45°09' E 036°29'413 8.7
2016-May-18 06:05N 40°59' E 028°60'6 7.5
2016-May-18 05:18N 40°54' E 028°56'  
Track history (hours):
 
Tides and Currents Weather Stations Pressure Air Temp Water Temp Dewpoint Dewpoint Depression Visibility Wind Speed Wind Dir Waves Ship Positions

Mekhanik Pogodin

Last reported at 2016-May-20 23:33 UTC. Time now 2016-May-25 20:48 UTC.
Position N 47°04' E 038°44'.

Length 141 m; draft 2.8 m.

Type: Ship (hazmat cat B). MMSI: 273354720.

Date/timePositionNaut miles runAvg speedWind from/ knotsBaromVisibWave heightAir tempDewpointWater temp
2016-May-20 23:33N 47°04' E 038°44'8 8.4
2016-May-20 22:33N 47°00' E 038°33'9 8.8
2016-May-20 21:34N 47°00' E 038°20'9 8.8
2016-May-20 20:34N 46°58' E 038°07'9 9.1
2016-May-20 19:34N 46°54' E 037°55'96 8.7
2016-May-20 08:33N 45°31' E 036°49'9 9.1
2016-May-20 07:34N 45°23' E 036°41'9 8.6
2016-May-20 06:33N 45°19' E 036°31'10 8.6
2016-May-20 05:24N 45°09' E 036°29'413 8.7
2016-May-18 06:05N 40°59' E 028°60'6 7.5
2016-May-18 05:18N 40°54' E 028°56'  

Dump ship's entire track history